Tarpon — WDG9715 — position and weather

sailwx.info

Track history (hours):
 
Tides and Currents Weather Stations Pressure Air Temp Water Temp Dewpoint Dewpoint Depression Visibility Wind Speed Wind Dir Waves Ship Positions

Tarpon

Owner: Kirby Offshore Marine, LLC, Staten Island, NY. More information available from US FCC via Universal Licensing System and Coast Guard Vessel Documentation Center.

Last reported at 2018-Feb-24 02:32 UTC. Time now 2018-Feb-24 04:02 UTC.
Position N 40°32' W 074°15'.

Length 128 m; draft 6.3 m.

Type: . MMSI: 366920940.

Date/timePositionNaut miles runAvg speedWind from/ knotsBaromVisibWave heightAir tempDewpointWater temp
2018-Feb-24 02:32N 40°32' W 074°15'1 5.6
2018-Feb-24 02:25N 40°32' W 074°15'1 2.0
2018-Feb-24 01:41N 40°34' W 074°14'0 0.0
2018-Feb-22 16:13N 40°34' W 074°14'0 0.0
2018-Feb-22 15:37N 40°34' W 074°14'0 0.1
2018-Feb-22 14:24N 40°34' W 074°14'0 0.2
2018-Feb-22 13:55N 40°33' W 074°14'2 4.6
2018-Feb-22 13:30N 40°35' W 074°13'1 2.3
2018-Feb-22 13:00N 40°36' W 074°12'0 0.0
2018-Feb-22 12:30N 40°36' W 074°12'0 0.1
2018-Feb-22 12:00N 40°36' W 074°12'0 0.0
2018-Feb-22 11:29N 40°36' W 074°12'0 0.0
2018-Feb-22 11:00N 40°36' W 074°12'1 1.6
2018-Feb-22 10:30N 40°37' W 074°12'2 5.0
2018-Feb-22 10:00N 40°39' W 074°10'0 0.0
2018-Feb-22 09:28N 40°39' W 074°10'0 0.0
2018-Feb-22 08:55N 40°39' W 074°10'0 0.0
2018-Feb-22 08:28N 40°39' W 074°10'0 0.0
2018-Feb-22 07:49N 40°39' W 074°10'0 0.0
2018-Feb-22 07:28N 40°39' W 074°10'0 0.0
2018-Feb-22 06:58N 40°39' W 074°10'0 0.0
2018-Feb-22 06:28N 40°39' W 074°10'0 0.0
2018-Feb-22 05:58N 40°39' W 074°10'0 0.0
2018-Feb-22 05:28N 40°39' W 074°10'0 0.0
2018-Feb-22 04:58N 40°39' W 074°10'0 0.0
2018-Feb-22 04:28N 40°39' W 074°10'0 0.0
2018-Feb-22 03:58N 40°39' W 074°10'0 0.0
2018-Feb-22 03:28N 40°39' W 074°10'0 0.0
2018-Feb-22 02:58N 40°39' W 074°10'0 0.0
2018-Feb-22 02:28N 40°39' W 074°10'0 0.0
2018-Feb-22 01:58N 40°39' W 074°10'0 0.0
2018-Feb-22 01:28N 40°39' W 074°10'0 0.0
2018-Feb-22 00:58N 40°39' W 074°10'0 0.0
2018-Feb-22 00:28N 40°39' W 074°10'0 0.0
2018-Feb-21 23:58N 40°39' W 074°10'0 0.0
2018-Feb-21 23:28N 40°39' W 074°10'0 0.0
2018-Feb-21 22:58N 40°39' W 074°10'3 6.2
2018-Feb-21 22:30N 40°39' W 074°06'5 9.7
2018-Feb-21 22:01N 40°42' W 074°01'2 4.3
2018-Feb-21 21:31N 40°42' W 073°58'0 0.0
2018-Feb-21 21:00N 40°42' W 073°58'0 0.0
2018-Feb-21 20:30N 40°42' W 073°58'0 0.0
2018-Feb-21 20:00N 40°42' W 073°58'0 0.0
2018-Feb-21 19:30N 40°42' W 073°58'0 0.0
2018-Feb-21 19:00N 40°42' W 073°58'0 0.0
2018-Feb-21 18:27N 40°42' W 073°58'0 0.0
2018-Feb-21 18:00N 40°42' W 073°58'0 0.0
2018-Feb-21 17:30N 40°42' W 073°58'0 0.0
2018-Feb-21 17:00N 40°42' W 073°58'0 0.0
2018-Feb-21 16:30N 40°42' W 073°58'0 0.0
2018-Feb-21 16:00N 40°42' W 073°58'0 0.0
2018-Feb-21 15:30N 40°42' W 073°58'0 0.0
2018-Feb-21 15:00N 40°42' W 073°58'0 0.0
2018-Feb-21 14:30N 40°42' W 073°58'0 0.0
2018-Feb-21 14:00N 40°42' W 073°58'0 0.0
2018-Feb-21 13:30N 40°42' W 073°58'0 0.0
2018-Feb-21 13:00N 40°42' W 073°58'0 0.0
2018-Feb-21 12:30N 40°42' W 073°58'0 0.0
2018-Feb-21 12:00N 40°42' W 073°58'0 0.0
2018-Feb-21 11:27N 40°42' W 073°58'0 0.0
2018-Feb-21 11:00N 40°42' W 073°58'0 0.0
2018-Feb-21 10:30N 40°42' W 073°58'0 0.0
2018-Feb-21 10:00N 40°42' W 073°58'0 0.0
2018-Feb-21 09:30N 40°42' W 073°58'0 0.0
2018-Feb-21 09:00N 40°42' W 073°58'0 0.0
2018-Feb-21 08:30N 40°42' W 073°58'0 0.0
2018-Feb-21 08:00N 40°42' W 073°58'0 0.0
2018-Feb-21 07:30N 40°42' W 073°58'0 0.0
2018-Feb-21 06:57N 40°42' W 073°58'0 0.0
2018-Feb-21 06:30N 40°42' W 073°58'0 0.0
2018-Feb-21 06:00N 40°42' W 073°58'0 0.0
2018-Feb-21 05:30N 40°42' W 073°58'0 0.0
2018-Feb-21 05:00N 40°42' W 073°58'0 0.0
2018-Feb-21 04:30N 40°42' W 073°58'0 0.0
2018-Feb-21 04:00N 40°42' W 073°58'0 0.0
2018-Feb-21 03:30N 40°42' W 073°58'0 0.0
2018-Feb-21 03:00N 40°42' W 073°58'0 0.0
2018-Feb-21 02:30N 40°42' W 073°58'0 0.0
2018-Feb-21 02:00N 40°42' W 073°58'0 0.0
2018-Feb-21 01:30N 40°42' W 073°58'0 0.0
2018-Feb-21 01:00N 40°42' W 073°58'0 0.0
2018-Feb-21 00:30N 40°42' W 073°58'0 0.0
2018-Feb-21 00:00N 40°42' W 073°58'0 0.0
2018-Feb-20 23:30N 40°42' W 073°58'0 0.0
2018-Feb-20 23:00N 40°42' W 073°58'0 0.0
2018-Feb-20 22:30N 40°42' W 073°58'0 0.0
2018-Feb-20 21:57N 40°42' W 073°58'0 0.0
2018-Feb-20 21:30N 40°42' W 073°58'0 0.0
2018-Feb-20 20:57N 40°42' W 073°58'0 0.0
2018-Feb-20 20:30N 40°42' W 073°58'0 0.0
2018-Feb-20 20:00N 40°42' W 073°58'0 0.0
2018-Feb-20 19:30N 40°42' W 073°58'0 0.0
2018-Feb-20 19:00N 40°42' W 073°58'0 0.0
2018-Feb-20 18:30N 40°42' W 073°58'0 0.0
2018-Feb-20 18:00N 40°42' W 073°58'0 0.0
2018-Feb-20 17:30N 40°42' W 073°58'0 0.0
2018-Feb-20 17:00N 40°42' W 073°58'0 0.0
2018-Feb-20 16:30N 40°42' W 073°58'0 0.0
2018-Feb-20 16:00N 40°42' W 073°58'0 0.0
2018-Feb-20 15:30N 40°42' W 073°58'0 0.0
2018-Feb-20 15:00N 40°42' W 073°58'0 0.0
2018-Feb-20 14:30N 40°42' W 073°58'0 0.0
2018-Feb-20 13:57N 40°42' W 073°58'0 0.0
2018-Feb-20 13:30N 40°42' W 073°58'0 0.0
2018-Feb-20 13:00N 40°42' W 073°58'0 0.0
2018-Feb-20 12:30N 40°42' W 073°58'0 0.0
2018-Feb-20 12:00N 40°42' W 073°58'0 0.0
2018-Feb-20 11:30N 40°42' W 073°58'0 0.0
2018-Feb-20 11:00N 40°42' W 073°58'0 0.0
2018-Feb-20 10:30N 40°42' W 073°58'0 0.0
2018-Feb-20 10:00N 40°42' W 073°58'0 0.0
2018-Feb-20 09:30N 40°42' W 073°58'0 0.0
2018-Feb-20 09:00N 40°42' W 073°58'0 0.0
2018-Feb-20 08:30N 40°42' W 073°58'0 0.0
2018-Feb-20 08:00N 40°42' W 073°58'0 0.0
2018-Feb-20 07:30N 40°42' W 073°58'0 0.0
2018-Feb-20 07:00N 40°42' W 073°58'0 0.0
2018-Feb-20 06:30N 40°42' W 073°58'0 0.0
2018-Feb-20 06:00N 40°42' W 073°58'0 0.0
2018-Feb-20 05:30N 40°42' W 073°58'0 0.0
2018-Feb-20 05:00N 40°42' W 073°58'0 0.0
2018-Feb-20 04:30N 40°42' W 073°58'0 0.0
2018-Feb-20 04:00N 40°42' W 073°58'0 0.0
2018-Feb-20 03:30N 40°42' W 073°58'0 0.0
2018-Feb-20 03:00N 40°42' W 073°58'0 0.0
2018-Feb-20 02:30N 40°42' W 073°58'0 0.0
2018-Feb-20 02:00N 40°42' W 073°58'0 0.0
2018-Feb-20 01:30N 40°42' W 073°58'0 0.0
2018-Feb-20 01:00N 40°42' W 073°58'0 0.0
2018-Feb-20 00:30N 40°42' W 073°58'0 0.0
2018-Feb-20 00:00N 40°42' W 073°58'0 0.0
2018-Feb-19 23:30N 40°42' W 073°58'1 2.7
2018-Feb-19 23:00N 40°42' W 074°00'3 6.0
2018-Feb-19 22:30N 40°39' W 074°02'0 0.0
2018-Feb-19 21:59N 40°39' W 074°02'0 0.0
2018-Feb-19 21:29N 40°39' W 074°02'0 0.0
2018-Feb-19 20:53N 40°39' W 074°02'0 0.0
2018-Feb-19 20:29N 40°39' W 074°02'0 0.0
2018-Feb-19 20:00N 40°39' W 074°02'0 0.5
2018-Feb-19 19:30N 40°39' W 074°03'5 8.9
2018-Feb-19 18:59N 40°44' W 074°01'4 8.7
2018-Feb-19 18:30N 40°48' W 073°59'4 8.1
2018-Feb-19 18:00N 40°51' W 073°57'4 6.8
2018-Feb-19 17:30N 40°55' W 073°55'1 2.1
2018-Feb-19 16:59N 40°56' W 073°55'0 0.0
2018-Feb-19 16:29N 40°56' W 073°55'0 0.0
2018-Feb-19 15:59N 40°56' W 073°55'0 0.0
2018-Feb-19 15:23N 40°56' W 073°55'0 0.0
2018-Feb-19 14:59N 40°56' W 073°55'0 0.1
2018-Feb-19 14:30N 40°56' W 073°55'0 0.2
2018-Feb-19 13:18N 40°56' W 073°55'0 0.4
2018-Feb-19 12:58N 40°56' W 073°55'0 0.4
2018-Feb-19 12:30N 40°56' W 073°55'0 0.0
2018-Feb-19 12:00N 40°56' W 073°55'0 0.0
2018-Feb-19 11:30N 40°56' W 073°55'0 0.0
2018-Feb-19 11:00N 40°56' W 073°55'0 0.0
2018-Feb-19 10:27N 40°56' W 073°55'0 0.0
2018-Feb-19 09:57N 40°56' W 073°55'0 0.0
2018-Feb-19 09:27N 40°56' W 073°55'0 0.0
2018-Feb-19 08:57N 40°56' W 073°55'0 0.0
2018-Feb-19 08:18N 40°56' W 073°55'0 0.0
2018-Feb-19 08:00N 40°56' W 073°55'0 0.2
2018-Feb-19 07:24N 40°56' W 073°55'0 0.1
2018-Feb-19 06:57N 40°56' W 073°55'0 0.1
2018-Feb-19 06:30N 40°56' W 073°55'0 0.0
2018-Feb-19 06:00N 40°56' W 073°55'0 0.0
2018-Feb-19 05:21N 40°56' W 073°55'0 0.1
2018-Feb-19 05:00N 40°56' W 073°55'0 0.0
2018-Feb-19 04:27N 40°56' W 073°55'0 0.0
2018-Feb-19 03:57N 40°56' W 073°55'0 0.0
2018-Feb-19 03:24N 40°56' W 073°55'0 0.0
2018-Feb-19 03:00N 40°56' W 073°55'0 0.0
2018-Feb-19 01:54N 40°56' W 073°55'1 1.5
2018-Feb-19 01:30N 40°55' W 073°55'3 5.6
2018-Feb-19 01:00N 40°53' W 073°56'0 0.2
2018-Feb-19 00:30N 40°53' W 073°56'0 0.2
2018-Feb-18 23:59N 40°52' W 073°56'0 0.1
2018-Feb-18 23:29N 40°52' W 073°56'0 0.0
2018-Feb-18 22:59N 40°52' W 073°56'0 0.0
2018-Feb-18 22:29N 40°52' W 073°56'0 0.0
2018-Feb-18 21:59N 40°52' W 073°56'0 0.0
2018-Feb-18 21:29N 40°52' W 073°56'0 0.0
2018-Feb-18 20:59N 40°52' W 073°56'0 0.0
2018-Feb-18 20:26N 40°52' W 073°56'0 0.0
2018-Feb-18 19:59N 40°52' W 073°56'0 0.0
2018-Feb-18 19:17N 40°52' W 073°56'0 0.1
2018-Feb-18 18:59N 40°52' W 073°56'0 0.1
2018-Feb-18 18:29N 40°53' W 073°56'0 0.3
2018-Feb-18 17:59N 40°53' W 073°56'0 0.1
2018-Feb-18 17:29N 40°53' W 073°56'0 0.0
2018-Feb-18 16:59N 40°53' W 073°56'0 0.0
2018-Feb-18 16:29N 40°53' W 073°56'0 0.0
2018-Feb-18 15:59N 40°53' W 073°56'0 0.0
2018-Feb-18 15:29N 40°53' W 073°56'0 0.2
2018-Feb-18 14:59N 40°53' W 073°56'2 3.4
2018-Feb-18 14:30N 40°51' W 073°57'5 8.9
2018-Feb-18 14:00N 40°47' W 073°60'4 8.2
2018-Feb-18 13:30N 40°43' W 074°01'4 6.9
2018-Feb-18 13:00N 40°40' W 074°02'0 0.1
2018-Feb-18 12:30N 40°40' W 074°02'0 0.0
2018-Feb-18 12:00N 40°40' W 074°02'0 0.0
2018-Feb-18 11:30N 40°40' W 074°02'0 0.1
2018-Feb-18 11:00N 40°40' W 074°02'0 0.0
2018-Feb-18 10:30N 40°40' W 074°02'0 0.0
2018-Feb-18 10:00N 40°40' W 074°02'0 0.0
2018-Feb-18 09:30N 40°40' W 074°03'0 0.0
2018-Feb-18 09:00N 40°40' W 074°03'0 0.0
2018-Feb-18 08:30N 40°40' W 074°03'0 0.0
2018-Feb-18 08:00N 40°40' W 074°03'0 0.0
2018-Feb-18 07:30N 40°40' W 074°03'0 0.0
2018-Feb-18 07:00N 40°40' W 074°03'0 0.0
2018-Feb-18 06:30N 40°40' W 074°03'0 0.1
2018-Feb-18 06:00N 40°40' W 074°03'0 0.0
2018-Feb-18 05:30N 40°40' W 074°03'0 0.1
2018-Feb-18 05:00N 40°40' W 074°03'0 0.1
2018-Feb-18 04:30N 40°40' W 074°02'0 0.2
2018-Feb-18 04:00N 40°40' W 074°02'0 0.1
2018-Feb-18 03:30N 40°40' W 074°02'0 0.1
2018-Feb-18 03:00N 40°40' W 074°02'0 0.0
2018-Feb-18 02:30N 40°40' W 074°02'0 0.0
2018-Feb-18 02:00N 40°40' W 074°02'0 0.0
2018-Feb-18 01:30N 40°40' W 074°02'0 0.1
2018-Feb-18 01:00N 40°40' W 074°02'0 0.1
2018-Feb-18 00:30N 40°40' W 074°03'0 0.2
2018-Feb-18 00:00N 40°40' W 074°03'0 0.2
2018-Feb-17 23:30N 40°40' W 074°03'0 0.0
2018-Feb-17 23:00N 40°40' W 074°03'0 0.0
2018-Feb-17 22:30N 40°40' W 074°03'0 0.0
2018-Feb-17 22:00N 40°40' W 074°03'0 0.0
2018-Feb-17 21:30N 40°40' W 074°03'0 0.0
2018-Feb-17 21:00N 40°40' W 074°03'0 0.1
2018-Feb-17 20:30N 40°40' W 074°03'3 6.9
2018-Feb-17 20:00N 40°39' W 074°07'2 3.9
2018-Feb-17 19:25N 40°39' W 074°10'0 0.0
2018-Feb-17 18:58N 40°39' W 074°10'0 0.0
2018-Feb-17 18:28N 40°39' W 074°10'0 0.0
2018-Feb-17 17:58N 40°39' W 074°10'0 0.0
2018-Feb-17 17:28N 40°39' W 074°10'0 0.0
2018-Feb-17 16:52N 40°39' W 074°10'0 0.0
2018-Feb-17 16:28N 40°39' W 074°10'0 0.0
2018-Feb-17 15:58N 40°39' W 074°10'0 0.0
2018-Feb-17 15:28N 40°39' W 074°10'0 0.0
2018-Feb-17 14:58N 40°39' W 074°10'0 0.0
2018-Feb-17 14:28N 40°39' W 074°10'0 0.0
2018-Feb-17 13:58N 40°39' W 074°10'2 3.7
2018-Feb-17 13:30N 40°39' W 074°08'4 8.4
2018-Feb-17 13:01N 40°40' W 074°02'0 0.1
2018-Feb-17 12:30N 40°40' W 074°02'0 0.0
2018-Feb-17 12:00N 40°40' W 074°02'0 0.3
2018-Feb-17 11:30N 40°40' W 074°03'0 0.1
2018-Feb-17 11:00N 40°40' W 074°02'0 0.0
2018-Feb-17 10:30N 40°40' W 074°03'0 0.0
2018-Feb-17 10:00N 40°40' W 074°03'0 0.0
2018-Feb-17 09:30N 40°40' W 074°03'0 0.0
2018-Feb-17 09:00N 40°40' W 074°03'0 0.0
2018-Feb-17 08:30N 40°40' W 074°03'0 0.0
2018-Feb-17 08:00N 40°40' W 074°03'0 0.0
2018-Feb-17 07:30N 40°40' W 074°03'0 0.0
2018-Feb-17 07:00N 40°40' W 074°03'0 0.0
2018-Feb-17 06:30N 40°40' W 074°02'0 0.0
2018-Feb-17 06:00N 40°40' W 074°02'0 0.0
2018-Feb-17 05:30N 40°40' W 074°02'0 0.0
2018-Feb-17 05:00N 40°40' W 074°02'0 0.0
2018-Feb-17 04:30N 40°40' W 074°02'0 0.0
2018-Feb-17 04:00N 40°40' W 074°02'0 0.1
2018-Feb-17 03:30N 40°40' W 074°02'0 0.1
2018-Feb-17 03:00N 40°40' W 074°02'0 0.1
2018-Feb-17 02:30N 40°40' W 074°02'0 0.0
2018-Feb-17 02:00N 40°40' W 074°02'0 0.0
2018-Feb-17 01:30N 40°40' W 074°02'0 0.1
2018-Feb-17 01:00N 40°40' W 074°02'0 0.0
2018-Feb-17 00:30N 40°40' W 074°02'0 0.1
2018-Feb-17 00:00N 40°40' W 074°02'0 0.1
2018-Feb-16 23:30N 40°40' W 074°02'0 0.1
2018-Feb-16 23:00N 40°40' W 074°02'0 0.0
2018-Feb-16 22:30N 40°40' W 074°02'0 0.1
2018-Feb-16 22:00N 40°40' W 074°02'0 0.0
2018-Feb-16 21:30N 40°40' W 074°02'0 0.0
2018-Feb-16 21:00N 40°40' W 074°03'0 0.0
2018-Feb-16 20:30N 40°40' W 074°03'0 0.0
2018-Feb-16 20:00N 40°40' W 074°02'0 0.0
2018-Feb-16 19:30N 40°40' W 074°02'2 3.3
2018-Feb-16 19:00N 40°39' W 074°04'3 6.4
2018-Feb-16 18:31N 40°39' W 074°09'1 2.0
2018-Feb-16 17:59N 40°38' W 074°10'0 0.0
2018-Feb-16 17:29N 40°38' W 074°10'0 0.0
2018-Feb-16 16:59N 40°38' W 074°10'0 0.0
2018-Feb-16 16:23N 40°39' W 074°10'0 0.0
2018-Feb-16 15:59N 40°39' W 074°10'0 0.0
2018-Feb-16 15:29N 40°39' W 074°10'0 0.0
2018-Feb-16 14:56N 40°39' W 074°10'0 0.0
2018-Feb-16 14:29N 40°38' W 074°10'0 0.9
2018-Feb-16 14:00N 40°38' W 074°09'4 7.4
2018-Feb-16 13:31N 40°39' W 074°05'2 3.6
2018-Feb-16 13:00N 40°40' W 074°02'0 0.0
2018-Feb-16 12:30N 40°40' W 074°02'0 0.2
2018-Feb-16 12:00N 40°40' W 074°02'0 0.1
2018-Feb-16 11:30N 40°40' W 074°02'0 0.1
2018-Feb-16 11:00N 40°40' W 074°02'0 0.1
2018-Feb-16 10:27N 40°40' W 074°02'0 0.2
2018-Feb-16 10:00N 40°40' W 074°03'0 0.0
2018-Feb-16 09:30N 40°40' W 074°02'0 0.1
2018-Feb-16 09:00N 40°40' W 074°03'0 0.0
2018-Feb-16 08:30N 40°40' W 074°03'0 0.0
2018-Feb-16 08:00N 40°40' W 074°03'0 0.0
2018-Feb-16 07:30N 40°40' W 074°03'0 0.0
2018-Feb-16 07:00N 40°40' W 074°03'0 0.0
2018-Feb-16 06:30N 40°40' W 074°03'0 0.0
2018-Feb-16 06:00N 40°40' W 074°03'0 0.0
2018-Feb-16 05:30N 40°40' W 074°03'0 0.0
2018-Feb-16 05:00N 40°40' W 074°03'0 0.0
2018-Feb-16 04:30N 40°40' W 074°03'0 0.1
2018-Feb-16 04:00N 40°40' W 074°03'0 0.2
2018-Feb-16 03:30N 40°40' W 074°02'0 0.1
2018-Feb-16 03:00N 40°40' W 074°02'0 0.1
2018-Feb-16 02:30N 40°40' W 074°02'0 0.0
2018-Feb-16 02:00N 40°40' W 074°02'0 0.0
2018-Feb-16 01:30N 40°40' W 074°02'0 0.1
2018-Feb-16 01:00N 40°40' W 074°02'0 0.0
2018-Feb-16 00:30N 40°40' W 074°02'0 0.0
2018-Feb-16 00:00N 40°40' W 074°02'0 0.1
2018-Feb-15 23:30N 40°40' W 074°02'0 0.0
2018-Feb-15 23:00N 40°40' W 074°03'0 0.3
2018-Feb-15 22:30N 40°40' W 074°03'1 2.8
2018-Feb-15 22:00N 40°39' W 074°04'0 0.5
2018-Feb-15 21:29N 40°40' W 074°04'0 0.0
2018-Feb-15 20:59N 40°40' W 074°04'0 0.0
2018-Feb-15 20:30N 40°40' W 074°04'0 0.0
2018-Feb-15 19:58N 40°40' W 074°04'0 0.0
2018-Feb-15 19:28N 40°40' W 074°04'0 0.0
2018-Feb-15 18:58N 40°40' W 074°04'0 0.0
2018-Feb-15 18:28N 40°40' W 074°04'0 0.0
2018-Feb-15 17:58N 40°40' W 074°04'0 0.0
2018-Feb-15 17:28N 40°40' W 074°04'0 0.0
2018-Feb-15 16:58N 40°40' W 074°04'0 0.0
2018-Feb-15 16:28N 40°40' W 074°04'0 0.0
2018-Feb-15 15:58N 40°40' W 074°04'0 0.0
2018-Feb-15 15:28N 40°40' W 074°04'0 0.0
2018-Feb-15 14:58N 40°40' W 074°04'0 0.0
2018-Feb-15 14:28N 40°40' W 074°04'0 0.0
2018-Feb-15 13:58N 40°40' W 074°04'0 0.0
2018-Feb-15 13:28N 40°40' W 074°04'0 0.0
2018-Feb-15 12:58N 40°40' W 074°04'0 0.0
2018-Feb-15 12:28N 40°40' W 074°04'0 0.0
2018-Feb-15 11:58N 40°40' W 074°04'0 0.0
2018-Feb-15 11:28N 40°40' W 074°04'0 0.0
2018-Feb-15 10:58N 40°40' W 074°04'0 0.0
2018-Feb-15 10:28N 40°40' W 074°04'0 0.0
2018-Feb-15 09:58N 40°40' W 074°04'0 0.0
2018-Feb-15 09:28N 40°40' W 074°04'0 0.0
2018-Feb-15 08:58N 40°40' W 074°04'0 0.0
2018-Feb-15 08:28N 40°40' W 074°04'0 0.0
2018-Feb-15 07:58N 40°40' W 074°04'0 0.0
2018-Feb-15 07:28N 40°40' W 074°04'0 0.0
2018-Feb-15 06:58N 40°40' W 074°04'0 0.0
2018-Feb-15 06:25N 40°40' W 074°04'0 0.0
2018-Feb-15 05:58N 40°40' W 074°04'0 0.0
2018-Feb-15 05:28N 40°40' W 074°04'0 0.0
2018-Feb-15 04:58N 40°40' W 074°04'0 0.0
2018-Feb-15 04:28N 40°40' W 074°04'0 0.0
2018-Feb-15 03:58N 40°40' W 074°04'0 0.0
2018-Feb-15 03:28N 40°40' W 074°04'0 0.0
2018-Feb-15 02:58N 40°40' W 074°04'0 0.0
2018-Feb-15 02:28N 40°40' W 074°04'0 0.0
2018-Feb-15 01:58N 40°40' W 074°04'0 0.0
2018-Feb-15 01:28N 40°40' W 074°04'0 0.0
2018-Feb-15 00:58N 40°40' W 074°04'0 0.0
2018-Feb-15 00:28N 40°40' W 074°04'0 0.0
2018-Feb-14 23:58N 40°40' W 074°04'0 0.0
2018-Feb-14 23:28N 40°40' W 074°04'0 0.0
2018-Feb-14 22:58N 40°40' W 074°04'0 0.9
2018-Feb-14 22:31N 40°40' W 074°04'1 1.5
2018-Feb-14 22:00N 40°40' W 074°03'1 2.2
2018-Feb-14 21:29N 40°40' W 074°04'0 0.0
2018-Feb-14 20:59N 40°40' W 074°04'0 0.0
2018-Feb-14 20:29N 40°40' W 074°04'0 0.0
2018-Feb-14 19:59N 40°40' W 074°04'0 0.0
2018-Feb-14 19:29N 40°40' W 074°04'0 0.0
2018-Feb-14 18:59N 40°40' W 074°04'0 0.0
2018-Feb-14 18:29N 40°40' W 074°04'0 0.0
2018-Feb-14 17:59N 40°40' W 074°04'0 0.0
2018-Feb-14 17:29N 40°40' W 074°04'0 0.0
2018-Feb-14 16:59N 40°40' W 074°04'3 6.0
2018-Feb-14 16:30N 40°39' W 074°08'2 2.8
2018-Feb-14 15:57N 40°38' W 074°10'0 0.0
2018-Feb-14 15:30N 40°38' W 074°10'3 5.0
2018-Feb-14 15:00N 40°39' W 074°07'2 3.7
2018-Feb-14 14:29N 40°40' W 074°04'0 0.0
2018-Feb-14 13:59N 40°40' W 074°04'0 0.0
2018-Feb-14 13:29N 40°40' W 074°04'0 0.0
2018-Feb-14 12:59N 40°40' W 074°04'0 0.0
2018-Feb-14 12:29N 40°40' W 074°04'0 0.0
2018-Feb-14 11:59N 40°40' W 074°04'0 0.0
2018-Feb-14 11:30N 40°40' W 074°04'0 0.0
2018-Feb-14 11:00N 40°40' W 074°04'0 0.0
2018-Feb-14 10:30N 40°40' W 074°04'0 0.0
2018-Feb-14 10:00N 40°40' W 074°04'0 0.0
2018-Feb-14 09:30N 40°40' W 074°04'0 0.0
2018-Feb-14 09:00N 40°40' W 074°04'0 0.0
2018-Feb-14 08:30N 40°40' W 074°04'0 0.0
2018-Feb-14 08:00N 40°40' W 074°04'0 0.0
2018-Feb-14 07:30N 40°40' W 074°04'0 0.0
2018-Feb-14 07:00N 40°40' W 074°04'0 0.0
2018-Feb-14 06:30N 40°40' W 074°04'0 0.0
2018-Feb-14 06:00N 40°40' W 074°04'0 0.0
2018-Feb-14 05:30N 40°40' W 074°04'0 0.0
2018-Feb-14 05:00N 40°40' W 074°04'0 0.0
2018-Feb-14 04:30N 40°40' W 074°04'0 0.0
2018-Feb-14 04:00N 40°40' W 074°04'0 0.0
2018-Feb-14 03:30N 40°40' W 074°04'0 0.0
2018-Feb-14 03:00N 40°40' W 074°04'  
Track history (hours):
 
Tides and Currents Weather Stations Pressure Air Temp Water Temp Dewpoint Dewpoint Depression Visibility Wind Speed Wind Dir Waves Ship Positions

Tarpon

Owner: Kirby Offshore Marine, LLC, Staten Island, NY. More information available from US FCC via Universal Licensing System and Coast Guard Vessel Documentation Center.

Last reported at 2018-Feb-24 02:32 UTC. Time now 2018-Feb-24 04:02 UTC.
Position N 40°32' W 074°15'.

Length 128 m; draft 6.3 m.

Type: . MMSI: 366920940.

Date/timePositionNaut miles runAvg speedWind from/ knotsBaromVisibWave heightAir tempDewpointWater temp
2018-Feb-24 02:32N 40°32' W 074°15'1 5.6
2018-Feb-24 02:25N 40°32' W 074°15'1 2.0
2018-Feb-24 01:41N 40°34' W 074°14'0 0.0
2018-Feb-22 16:13N 40°34' W 074°14'0 0.0
2018-Feb-22 15:37N 40°34' W 074°14'0 0.1
2018-Feb-22 14:24N 40°34' W 074°14'0 0.2
2018-Feb-22 13:55N 40°33' W 074°14'2 4.6
2018-Feb-22 13:30N 40°35' W 074°13'1 2.3
2018-Feb-22 13:00N 40°36' W 074°12'0 0.0
2018-Feb-22 12:30N 40°36' W 074°12'0 0.1
2018-Feb-22 12:00N 40°36' W 074°12'0 0.0
2018-Feb-22 11:29N 40°36' W 074°12'0 0.0
2018-Feb-22 11:00N 40°36' W 074°12'1 1.6
2018-Feb-22 10:30N 40°37' W 074°12'2 5.0
2018-Feb-22 10:00N 40°39' W 074°10'0 0.0
2018-Feb-22 09:28N 40°39' W 074°10'0 0.0
2018-Feb-22 08:55N 40°39' W 074°10'0 0.0
2018-Feb-22 08:28N 40°39' W 074°10'0 0.0
2018-Feb-22 07:49N 40°39' W 074°10'0 0.0
2018-Feb-22 07:28N 40°39' W 074°10'0 0.0
2018-Feb-22 06:58N 40°39' W 074°10'0 0.0
2018-Feb-22 06:28N 40°39' W 074°10'0 0.0
2018-Feb-22 05:58N 40°39' W 074°10'0 0.0
2018-Feb-22 05:28N 40°39' W 074°10'0 0.0
2018-Feb-22 04:58N 40°39' W 074°10'0 0.0
2018-Feb-22 04:28N 40°39' W 074°10'0 0.0
2018-Feb-22 03:58N 40°39' W 074°10'0 0.0
2018-Feb-22 03:28N 40°39' W 074°10'0 0.0
2018-Feb-22 02:58N 40°39' W 074°10'0 0.0
2018-Feb-22 02:28N 40°39' W 074°10'0 0.0
2018-Feb-22 01:58N 40°39' W 074°10'0 0.0
2018-Feb-22 01:28N 40°39' W 074°10'0 0.0
2018-Feb-22 00:58N 40°39' W 074°10'0 0.0
2018-Feb-22 00:28N 40°39' W 074°10'0 0.0
2018-Feb-21 23:58N 40°39' W 074°10'0 0.0
2018-Feb-21 23:28N 40°39' W 074°10'0 0.0
2018-Feb-21 22:58N 40°39' W 074°10'3 6.2
2018-Feb-21 22:30N 40°39' W 074°06'5 9.7
2018-Feb-21 22:01N 40°42' W 074°01'2 4.3
2018-Feb-21 21:31N 40°42' W 073°58'0 0.0
2018-Feb-21 21:00N 40°42' W 073°58'0 0.0
2018-Feb-21 20:30N 40°42' W 073°58'0 0.0
2018-Feb-21 20:00N 40°42' W 073°58'0 0.0
2018-Feb-21 19:30N 40°42' W 073°58'0 0.0
2018-Feb-21 19:00N 40°42' W 073°58'0 0.0
2018-Feb-21 18:27N 40°42' W 073°58'0 0.0
2018-Feb-21 18:00N 40°42' W 073°58'0 0.0
2018-Feb-21 17:30N 40°42' W 073°58'0 0.0
2018-Feb-21 17:00N 40°42' W 073°58'0 0.0
2018-Feb-21 16:30N 40°42' W 073°58'0 0.0
2018-Feb-21 16:00N 40°42' W 073°58'0 0.0
2018-Feb-21 15:30N 40°42' W 073°58'0 0.0
2018-Feb-21 15:00N 40°42' W 073°58'0 0.0
2018-Feb-21 14:30N 40°42' W 073°58'0 0.0
2018-Feb-21 14:00N 40°42' W 073°58'0 0.0
2018-Feb-21 13:30N 40°42' W 073°58'0 0.0
2018-Feb-21 13:00N 40°42' W 073°58'0 0.0
2018-Feb-21 12:30N 40°42' W 073°58'0 0.0
2018-Feb-21 12:00N 40°42' W 073°58'0 0.0
2018-Feb-21 11:27N 40°42' W 073°58'0 0.0
2018-Feb-21 11:00N 40°42' W 073°58'0 0.0
2018-Feb-21 10:30N 40°42' W 073°58'0 0.0
2018-Feb-21 10:00N 40°42' W 073°58'0 0.0
2018-Feb-21 09:30N 40°42' W 073°58'0 0.0
2018-Feb-21 09:00N 40°42' W 073°58'0 0.0
2018-Feb-21 08:30N 40°42' W 073°58'0 0.0
2018-Feb-21 08:00N 40°42' W 073°58'0 0.0
2018-Feb-21 07:30N 40°42' W 073°58'0 0.0
2018-Feb-21 06:57N 40°42' W 073°58'0 0.0
2018-Feb-21 06:30N 40°42' W 073°58'0 0.0
2018-Feb-21 06:00N 40°42' W 073°58'0 0.0
2018-Feb-21 05:30N 40°42' W 073°58'0 0.0
2018-Feb-21 05:00N 40°42' W 073°58'0 0.0
2018-Feb-21 04:30N 40°42' W 073°58'0 0.0
2018-Feb-21 04:00N 40°42' W 073°58'0 0.0
2018-Feb-21 03:30N 40°42' W 073°58'0 0.0
2018-Feb-21 03:00N 40°42' W 073°58'0 0.0
2018-Feb-21 02:30N 40°42' W 073°58'0 0.0
2018-Feb-21 02:00N 40°42' W 073°58'0 0.0
2018-Feb-21 01:30N 40°42' W 073°58'0 0.0
2018-Feb-21 01:00N 40°42' W 073°58'0 0.0
2018-Feb-21 00:30N 40°42' W 073°58'0 0.0
2018-Feb-21 00:00N 40°42' W 073°58'0 0.0
2018-Feb-20 23:30N 40°42' W 073°58'0 0.0
2018-Feb-20 23:00N 40°42' W 073°58'0 0.0
2018-Feb-20 22:30N 40°42' W 073°58'0 0.0
2018-Feb-20 21:57N 40°42' W 073°58'0 0.0
2018-Feb-20 21:30N 40°42' W 073°58'0 0.0
2018-Feb-20 20:57N 40°42' W 073°58'0 0.0
2018-Feb-20 20:30N 40°42' W 073°58'0 0.0
2018-Feb-20 20:00N 40°42' W 073°58'0 0.0
2018-Feb-20 19:30N 40°42' W 073°58'0 0.0
2018-Feb-20 19:00N 40°42' W 073°58'0 0.0
2018-Feb-20 18:30N 40°42' W 073°58'0 0.0
2018-Feb-20 18:00N 40°42' W 073°58'0 0.0
2018-Feb-20 17:30N 40°42' W 073°58'0 0.0
2018-Feb-20 17:00N 40°42' W 073°58'0 0.0
2018-Feb-20 16:30N 40°42' W 073°58'0 0.0
2018-Feb-20 16:00N 40°42' W 073°58'0 0.0
2018-Feb-20 15:30N 40°42' W 073°58'0 0.0
2018-Feb-20 15:00N 40°42' W 073°58'0 0.0
2018-Feb-20 14:30N 40°42' W 073°58'0 0.0
2018-Feb-20 13:57N 40°42' W 073°58'0 0.0
2018-Feb-20 13:30N 40°42' W 073°58'0 0.0
2018-Feb-20 13:00N 40°42' W 073°58'0 0.0
2018-Feb-20 12:30N 40°42' W 073°58'0 0.0
2018-Feb-20 12:00N 40°42' W 073°58'0 0.0
2018-Feb-20 11:30N 40°42' W 073°58'0 0.0
2018-Feb-20 11:00N 40°42' W 073°58'0 0.0
2018-Feb-20 10:30N 40°42' W 073°58'0 0.0
2018-Feb-20 10:00N 40°42' W 073°58'0 0.0
2018-Feb-20 09:30N 40°42' W 073°58'0 0.0
2018-Feb-20 09:00N 40°42' W 073°58'0 0.0
2018-Feb-20 08:30N 40°42' W 073°58'0 0.0
2018-Feb-20 08:00N 40°42' W 073°58'0 0.0
2018-Feb-20 07:30N 40°42' W 073°58'0 0.0
2018-Feb-20 07:00N 40°42' W 073°58'0 0.0
2018-Feb-20 06:30N 40°42' W 073°58'0 0.0
2018-Feb-20 06:00N 40°42' W 073°58'0 0.0
2018-Feb-20 05:30N 40°42' W 073°58'0 0.0
2018-Feb-20 05:00N 40°42' W 073°58'0 0.0
2018-Feb-20 04:30N 40°42' W 073°58'0 0.0
2018-Feb-20 04:00N 40°42' W 073°58'0 0.0
2018-Feb-20 03:30N 40°42' W 073°58'0 0.0
2018-Feb-20 03:00N 40°42' W 073°58'0 0.0
2018-Feb-20 02:30N 40°42' W 073°58'0 0.0
2018-Feb-20 02:00N 40°42' W 073°58'0 0.0
2018-Feb-20 01:30N 40°42' W 073°58'0 0.0
2018-Feb-20 01:00N 40°42' W 073°58'0 0.0
2018-Feb-20 00:30N 40°42' W 073°58'0 0.0
2018-Feb-20 00:00N 40°42' W 073°58'0 0.0
2018-Feb-19 23:30N 40°42' W 073°58'1 2.7
2018-Feb-19 23:00N 40°42' W 074°00'3 6.0
2018-Feb-19 22:30N 40°39' W 074°02'0 0.0
2018-Feb-19 21:59N 40°39' W 074°02'0 0.0
2018-Feb-19 21:29N 40°39' W 074°02'0 0.0
2018-Feb-19 20:53N 40°39' W 074°02'0 0.0
2018-Feb-19 20:29N 40°39' W 074°02'0 0.0
2018-Feb-19 20:00N 40°39' W 074°02'0 0.5
2018-Feb-19 19:30N 40°39' W 074°03'5 8.9
2018-Feb-19 18:59N 40°44' W 074°01'4 8.7
2018-Feb-19 18:30N 40°48' W 073°59'4 8.1
2018-Feb-19 18:00N 40°51' W 073°57'4 6.8
2018-Feb-19 17:30N 40°55' W 073°55'1 2.1
2018-Feb-19 16:59N 40°56' W 073°55'0 0.0
2018-Feb-19 16:29N 40°56' W 073°55'0 0.0
2018-Feb-19 15:59N 40°56' W 073°55'0 0.0
2018-Feb-19 15:23N 40°56' W 073°55'0 0.0
2018-Feb-19 14:59N 40°56' W 073°55'0 0.1
2018-Feb-19 14:30N 40°56' W 073°55'0 0.2
2018-Feb-19 13:18N 40°56' W 073°55'0 0.4
2018-Feb-19 12:58N 40°56' W 073°55'0 0.4
2018-Feb-19 12:30N 40°56' W 073°55'0 0.0
2018-Feb-19 12:00N 40°56' W 073°55'0 0.0
2018-Feb-19 11:30N 40°56' W 073°55'0 0.0
2018-Feb-19 11:00N 40°56' W 073°55'0 0.0
2018-Feb-19 10:27N 40°56' W 073°55'0 0.0
2018-Feb-19 09:57N 40°56' W 073°55'0 0.0
2018-Feb-19 09:27N 40°56' W 073°55'0 0.0
2018-Feb-19 08:57N 40°56' W 073°55'0 0.0
2018-Feb-19 08:18N 40°56' W 073°55'0 0.0
2018-Feb-19 08:00N 40°56' W 073°55'0 0.2
2018-Feb-19 07:24N 40°56' W 073°55'0 0.1
2018-Feb-19 06:57N 40°56' W 073°55'0 0.1
2018-Feb-19 06:30N 40°56' W 073°55'0 0.0
2018-Feb-19 06:00N 40°56' W 073°55'0 0.0
2018-Feb-19 05:21N 40°56' W 073°55'0 0.1
2018-Feb-19 05:00N 40°56' W 073°55'0 0.0
2018-Feb-19 04:27N 40°56' W 073°55'0 0.0
2018-Feb-19 03:57N 40°56' W 073°55'0 0.0
2018-Feb-19 03:24N 40°56' W 073°55'0 0.0
2018-Feb-19 03:00N 40°56' W 073°55'0 0.0
2018-Feb-19 01:54N 40°56' W 073°55'1 1.5
2018-Feb-19 01:30N 40°55' W 073°55'3 5.6
2018-Feb-19 01:00N 40°53' W 073°56'0 0.2
2018-Feb-19 00:30N 40°53' W 073°56'0 0.2
2018-Feb-18 23:59N 40°52' W 073°56'0 0.1
2018-Feb-18 23:29N 40°52' W 073°56'0 0.0
2018-Feb-18 22:59N 40°52' W 073°56'0 0.0
2018-Feb-18 22:29N 40°52' W 073°56'0 0.0
2018-Feb-18 21:59N 40°52' W 073°56'0 0.0
2018-Feb-18 21:29N 40°52' W 073°56'0 0.0
2018-Feb-18 20:59N 40°52' W 073°56'0 0.0
2018-Feb-18 20:26N 40°52' W 073°56'0 0.0
2018-Feb-18 19:59N 40°52' W 073°56'0 0.0
2018-Feb-18 19:17N 40°52' W 073°56'0 0.1
2018-Feb-18 18:59N 40°52' W 073°56'0 0.1
2018-Feb-18 18:29N 40°53' W 073°56'0 0.3
2018-Feb-18 17:59N 40°53' W 073°56'0 0.1
2018-Feb-18 17:29N 40°53' W 073°56'0 0.0
2018-Feb-18 16:59N 40°53' W 073°56'0 0.0
2018-Feb-18 16:29N 40°53' W 073°56'0 0.0
2018-Feb-18 15:59N 40°53' W 073°56'0 0.0
2018-Feb-18 15:29N 40°53' W 073°56'0 0.2
2018-Feb-18 14:59N 40°53' W 073°56'2 3.4
2018-Feb-18 14:30N 40°51' W 073°57'5 8.9
2018-Feb-18 14:00N 40°47' W 073°60'4 8.2
2018-Feb-18 13:30N 40°43' W 074°01'4 6.9
2018-Feb-18 13:00N 40°40' W 074°02'0 0.1
2018-Feb-18 12:30N 40°40' W 074°02'0 0.0
2018-Feb-18 12:00N 40°40' W 074°02'0 0.0
2018-Feb-18 11:30N 40°40' W 074°02'0 0.1
2018-Feb-18 11:00N 40°40' W 074°02'0 0.0
2018-Feb-18 10:30N 40°40' W 074°02'0 0.0
2018-Feb-18 10:00N 40°40' W 074°02'0 0.0
2018-Feb-18 09:30N 40°40' W 074°03'0 0.0
2018-Feb-18 09:00N 40°40' W 074°03'0 0.0
2018-Feb-18 08:30N 40°40' W 074°03'0 0.0
2018-Feb-18 08:00N 40°40' W 074°03'0 0.0
2018-Feb-18 07:30N 40°40' W 074°03'0 0.0
2018-Feb-18 07:00N 40°40' W 074°03'0 0.0
2018-Feb-18 06:30N 40°40' W 074°03'0 0.1
2018-Feb-18 06:00N 40°40' W 074°03'0 0.0
2018-Feb-18 05:30N 40°40' W 074°03'0 0.1
2018-Feb-18 05:00N 40°40' W 074°03'0 0.1
2018-Feb-18 04:30N 40°40' W 074°02'0 0.2
2018-Feb-18 04:00N 40°40' W 074°02'0 0.1
2018-Feb-18 03:30N 40°40' W 074°02'0 0.1
2018-Feb-18 03:00N 40°40' W 074°02'0 0.0
2018-Feb-18 02:30N 40°40' W 074°02'0 0.0
2018-Feb-18 02:00N 40°40' W 074°02'0 0.0
2018-Feb-18 01:30N 40°40' W 074°02'0 0.1
2018-Feb-18 01:00N 40°40' W 074°02'0 0.1
2018-Feb-18 00:30N 40°40' W 074°03'0 0.2
2018-Feb-18 00:00N 40°40' W 074°03'0 0.2
2018-Feb-17 23:30N 40°40' W 074°03'0 0.0
2018-Feb-17 23:00N 40°40' W 074°03'0 0.0
2018-Feb-17 22:30N 40°40' W 074°03'0 0.0
2018-Feb-17 22:00N 40°40' W 074°03'0 0.0
2018-Feb-17 21:30N 40°40' W 074°03'0 0.0
2018-Feb-17 21:00N 40°40' W 074°03'0 0.1
2018-Feb-17 20:30N 40°40' W 074°03'3 6.9
2018-Feb-17 20:00N 40°39' W 074°07'2 3.9
2018-Feb-17 19:25N 40°39' W 074°10'0 0.0
2018-Feb-17 18:58N 40°39' W 074°10'0 0.0
2018-Feb-17 18:28N 40°39' W 074°10'0 0.0
2018-Feb-17 17:58N 40°39' W 074°10'0 0.0
2018-Feb-17 17:28N 40°39' W 074°10'0 0.0
2018-Feb-17 16:52N 40°39' W 074°10'0 0.0
2018-Feb-17 16:28N 40°39' W 074°10'0 0.0
2018-Feb-17 15:58N 40°39' W 074°10'0 0.0
2018-Feb-17 15:28N 40°39' W 074°10'0 0.0
2018-Feb-17 14:58N 40°39' W 074°10'0 0.0
2018-Feb-17 14:28N 40°39' W 074°10'0 0.0
2018-Feb-17 13:58N 40°39' W 074°10'2 3.7
2018-Feb-17 13:30N 40°39' W 074°08'4 8.4
2018-Feb-17 13:01N 40°40' W 074°02'0 0.1
2018-Feb-17 12:30N 40°40' W 074°02'0 0.0
2018-Feb-17 12:00N 40°40' W 074°02'0 0.3
2018-Feb-17 11:30N 40°40' W 074°03'0 0.1
2018-Feb-17 11:00N 40°40' W 074°02'0 0.0
2018-Feb-17 10:30N 40°40' W 074°03'0 0.0
2018-Feb-17 10:00N 40°40' W 074°03'0 0.0
2018-Feb-17 09:30N 40°40' W 074°03'0 0.0
2018-Feb-17 09:00N 40°40' W 074°03'0 0.0
2018-Feb-17 08:30N 40°40' W 074°03'0 0.0
2018-Feb-17 08:00N 40°40' W 074°03'0 0.0
2018-Feb-17 07:30N 40°40' W 074°03'0 0.0
2018-Feb-17 07:00N 40°40' W 074°03'0 0.0
2018-Feb-17 06:30N 40°40' W 074°02'0 0.0
2018-Feb-17 06:00N 40°40' W 074°02'0 0.0
2018-Feb-17 05:30N 40°40' W 074°02'0 0.0
2018-Feb-17 05:00N 40°40' W 074°02'0 0.0
2018-Feb-17 04:30N 40°40' W 074°02'0 0.0
2018-Feb-17 04:00N 40°40' W 074°02'0 0.1
2018-Feb-17 03:30N 40°40' W 074°02'0 0.1
2018-Feb-17 03:00N 40°40' W 074°02'0 0.1
2018-Feb-17 02:30N 40°40' W 074°02'0 0.0
2018-Feb-17 02:00N 40°40' W 074°02'0 0.0
2018-Feb-17 01:30N 40°40' W 074°02'0 0.1
2018-Feb-17 01:00N 40°40' W 074°02'0 0.0
2018-Feb-17 00:30N 40°40' W 074°02'0 0.1
2018-Feb-17 00:00N 40°40' W 074°02'0 0.1
2018-Feb-16 23:30N 40°40' W 074°02'0 0.1
2018-Feb-16 23:00N 40°40' W 074°02'0 0.0
2018-Feb-16 22:30N 40°40' W 074°02'0 0.1
2018-Feb-16 22:00N 40°40' W 074°02'0 0.0
2018-Feb-16 21:30N 40°40' W 074°02'0 0.0
2018-Feb-16 21:00N 40°40' W 074°03'0 0.0
2018-Feb-16 20:30N 40°40' W 074°03'0 0.0
2018-Feb-16 20:00N 40°40' W 074°02'0 0.0
2018-Feb-16 19:30N 40°40' W 074°02'2 3.3
2018-Feb-16 19:00N 40°39' W 074°04'3 6.4
2018-Feb-16 18:31N 40°39' W 074°09'1 2.0
2018-Feb-16 17:59N 40°38' W 074°10'0 0.0
2018-Feb-16 17:29N 40°38' W 074°10'0 0.0
2018-Feb-16 16:59N 40°38' W 074°10'0 0.0
2018-Feb-16 16:23N 40°39' W 074°10'0 0.0
2018-Feb-16 15:59N 40°39' W 074°10'0 0.0
2018-Feb-16 15:29N 40°39' W 074°10'0 0.0
2018-Feb-16 14:56N 40°39' W 074°10'0 0.0
2018-Feb-16 14:29N 40°38' W 074°10'0 0.9
2018-Feb-16 14:00N 40°38' W 074°09'4 7.4
2018-Feb-16 13:31N 40°39' W 074°05'2 3.6
2018-Feb-16 13:00N 40°40' W 074°02'0 0.0
2018-Feb-16 12:30N 40°40' W 074°02'0 0.2
2018-Feb-16 12:00N 40°40' W 074°02'0 0.1
2018-Feb-16 11:30N 40°40' W 074°02'0 0.1
2018-Feb-16 11:00N 40°40' W 074°02'0 0.1
2018-Feb-16 10:27N 40°40' W 074°02'0 0.2
2018-Feb-16 10:00N 40°40' W 074°03'0 0.0
2018-Feb-16 09:30N 40°40' W 074°02'0 0.1
2018-Feb-16 09:00N 40°40' W 074°03'0 0.0
2018-Feb-16 08:30N 40°40' W 074°03'0 0.0
2018-Feb-16 08:00N 40°40' W 074°03'0 0.0
2018-Feb-16 07:30N 40°40' W 074°03'0 0.0
2018-Feb-16 07:00N 40°40' W 074°03'0 0.0
2018-Feb-16 06:30N 40°40' W 074°03'0 0.0
2018-Feb-16 06:00N 40°40' W 074°03'0 0.0
2018-Feb-16 05:30N 40°40' W 074°03'0 0.0
2018-Feb-16 05:00N 40°40' W 074°03'0 0.0
2018-Feb-16 04:30N 40°40' W 074°03'0 0.1
2018-Feb-16 04:00N 40°40' W 074°03'0 0.2
2018-Feb-16 03:30N 40°40' W 074°02'0 0.1
2018-Feb-16 03:00N 40°40' W 074°02'0 0.1
2018-Feb-16 02:30N 40°40' W 074°02'0 0.0
2018-Feb-16 02:00N 40°40' W 074°02'0 0.0
2018-Feb-16 01:30N 40°40' W 074°02'0 0.1
2018-Feb-16 01:00N 40°40' W 074°02'0 0.0
2018-Feb-16 00:30N 40°40' W 074°02'0 0.0
2018-Feb-16 00:00N 40°40' W 074°02'0 0.1
2018-Feb-15 23:30N 40°40' W 074°02'0 0.0
2018-Feb-15 23:00N 40°40' W 074°03'0 0.3
2018-Feb-15 22:30N 40°40' W 074°03'1 2.8
2018-Feb-15 22:00N 40°39' W 074°04'0 0.5
2018-Feb-15 21:29N 40°40' W 074°04'0 0.0
2018-Feb-15 20:59N 40°40' W 074°04'0 0.0
2018-Feb-15 20:30N 40°40' W 074°04'0 0.0
2018-Feb-15 19:58N 40°40' W 074°04'0 0.0
2018-Feb-15 19:28N 40°40' W 074°04'0 0.0
2018-Feb-15 18:58N 40°40' W 074°04'0 0.0
2018-Feb-15 18:28N 40°40' W 074°04'0 0.0
2018-Feb-15 17:58N 40°40' W 074°04'0 0.0
2018-Feb-15 17:28N 40°40' W 074°04'0 0.0
2018-Feb-15 16:58N 40°40' W 074°04'0 0.0
2018-Feb-15 16:28N 40°40' W 074°04'0 0.0
2018-Feb-15 15:58N 40°40' W 074°04'0 0.0
2018-Feb-15 15:28N 40°40' W 074°04'0 0.0
2018-Feb-15 14:58N 40°40' W 074°04'0 0.0
2018-Feb-15 14:28N 40°40' W 074°04'0 0.0
2018-Feb-15 13:58N 40°40' W 074°04'0 0.0
2018-Feb-15 13:28N 40°40' W 074°04'0 0.0
2018-Feb-15 12:58N 40°40' W 074°04'0 0.0
2018-Feb-15 12:28N 40°40' W 074°04'0 0.0
2018-Feb-15 11:58N 40°40' W 074°04'0 0.0
2018-Feb-15 11:28N 40°40' W 074°04'0 0.0
2018-Feb-15 10:58N 40°40' W 074°04'0 0.0
2018-Feb-15 10:28N 40°40' W 074°04'0 0.0
2018-Feb-15 09:58N 40°40' W 074°04'0 0.0
2018-Feb-15 09:28N 40°40' W 074°04'0 0.0
2018-Feb-15 08:58N 40°40' W 074°04'0 0.0
2018-Feb-15 08:28N 40°40' W 074°04'0 0.0
2018-Feb-15 07:58N 40°40' W 074°04'0 0.0
2018-Feb-15 07:28N 40°40' W 074°04'0 0.0
2018-Feb-15 06:58N 40°40' W 074°04'0 0.0
2018-Feb-15 06:25N 40°40' W 074°04'0 0.0
2018-Feb-15 05:58N 40°40' W 074°04'0 0.0
2018-Feb-15 05:28N 40°40' W 074°04'0 0.0
2018-Feb-15 04:58N 40°40' W 074°04'0 0.0
2018-Feb-15 04:28N 40°40' W 074°04'0 0.0
2018-Feb-15 03:58N 40°40' W 074°04'0 0.0
2018-Feb-15 03:28N 40°40' W 074°04'0 0.0
2018-Feb-15 02:58N 40°40' W 074°04'0 0.0
2018-Feb-15 02:28N 40°40' W 074°04'0 0.0
2018-Feb-15 01:58N 40°40' W 074°04'0 0.0
2018-Feb-15 01:28N 40°40' W 074°04'0 0.0
2018-Feb-15 00:58N 40°40' W 074°04'0 0.0
2018-Feb-15 00:28N 40°40' W 074°04'0 0.0
2018-Feb-14 23:58N 40°40' W 074°04'0 0.0
2018-Feb-14 23:28N 40°40' W 074°04'0 0.0
2018-Feb-14 22:58N 40°40' W 074°04'0 0.9
2018-Feb-14 22:31N 40°40' W 074°04'1 1.5
2018-Feb-14 22:00N 40°40' W 074°03'1 2.2
2018-Feb-14 21:29N 40°40' W 074°04'0 0.0
2018-Feb-14 20:59N 40°40' W 074°04'0 0.0
2018-Feb-14 20:29N 40°40' W 074°04'0 0.0
2018-Feb-14 19:59N 40°40' W 074°04'0 0.0
2018-Feb-14 19:29N 40°40' W 074°04'0 0.0
2018-Feb-14 18:59N 40°40' W 074°04'0 0.0
2018-Feb-14 18:29N 40°40' W 074°04'0 0.0
2018-Feb-14 17:59N 40°40' W 074°04'0 0.0
2018-Feb-14 17:29N 40°40' W 074°04'0 0.0
2018-Feb-14 16:59N 40°40' W 074°04'3 6.0
2018-Feb-14 16:30N 40°39' W 074°08'2 2.8
2018-Feb-14 15:57N 40°38' W 074°10'0 0.0
2018-Feb-14 15:30N 40°38' W 074°10'3 5.0
2018-Feb-14 15:00N 40°39' W 074°07'2 3.7
2018-Feb-14 14:29N 40°40' W 074°04'0 0.0
2018-Feb-14 13:59N 40°40' W 074°04'0 0.0
2018-Feb-14 13:29N 40°40' W 074°04'0 0.0
2018-Feb-14 12:59N 40°40' W 074°04'0 0.0
2018-Feb-14 12:29N 40°40' W 074°04'0 0.0
2018-Feb-14 11:59N 40°40' W 074°04'0 0.0
2018-Feb-14 11:30N 40°40' W 074°04'0 0.0
2018-Feb-14 11:00N 40°40' W 074°04'0 0.0
2018-Feb-14 10:30N 40°40' W 074°04'0 0.0
2018-Feb-14 10:00N 40°40' W 074°04'0 0.0
2018-Feb-14 09:30N 40°40' W 074°04'0 0.0
2018-Feb-14 09:00N 40°40' W 074°04'0 0.0
2018-Feb-14 08:30N 40°40' W 074°04'0 0.0
2018-Feb-14 08:00N 40°40' W 074°04'0 0.0
2018-Feb-14 07:30N 40°40' W 074°04'0 0.0
2018-Feb-14 07:00N 40°40' W 074°04'0 0.0
2018-Feb-14 06:30N 40°40' W 074°04'0 0.0
2018-Feb-14 06:00N 40°40' W 074°04'0 0.0
2018-Feb-14 05:30N 40°40' W 074°04'0 0.0
2018-Feb-14 05:00N 40°40' W 074°04'0 0.0
2018-Feb-14 04:30N 40°40' W 074°04'0 0.0
2018-Feb-14 04:00N 40°40' W 074°04'0 0.0
2018-Feb-14 03:30N 40°40' W 074°04'0 0.0
2018-Feb-14 03:00N 40°40' W 074°04'  

Dump ship's entire track history